KBBB

Benson Municipal Airport

Benson, Minnesota, USA
METAR KBBB 211256Z AUTO 27003KT 10SM M22/M25 A3050 RMK AO2
Observed Flight Rules
Feb-21 @ 12:56 UTC (24 minutes ago)
Wind Visibility
270° at 3 knots 10 miles
Temperatures Readings
Current -22°C / -8°F
Dewpoint -25°C / -13°F
Humidity 77%
Altimeter 30.5" Hg
Pressure 1033 hPa
Elevation 317
METAR KBBB 211256Z AUTO 27003KT 10SM M22/M25 A3050 RMK AO2
Observed Flight Rules
Feb-21 @ 12:56 UTC
(24 minutes ago)
Wind Visibility
270° at 3 knots 10 miles
Temperature Dewpoint
-22°C / -8°F -25°C / -13°F
Humidity Altimeter Pressure
77% 30.5" Hg 1033 hPa